Terminal Aerodrome Forecast
Issued by NWS Twin Cities, MN

Home | Current Version | Previous Version | Text Only | Print | Product List | Glossary On
Versions: 1 2 3 4 5 6 7 8 9 10 11 12
000
FTUS43 KMPX 031120
TAFEAU
TAF
KEAU 031120Z 0312/0412 16008KT P6SM OVC070
     FM031500 17012KT P6SM VCSH BKN025 BKN040
     FM032100 17010KT P6SM VCTS SCT025 BKN040CB
     FM040200 18005KT P6SM VCSH SCT020 BKN040
     FM040600 20004KT 6SM BR OVC020
     FM040800 VRB03KT 2SM BR OVC007=

USA.gov is the U.S. government's official web portal to all federal, state and local government web resources and services.